createdAt,value
2019-01-16T22:01:07.939Z,4.3
2019-01-16T22:02:07.700Z,4.38
2019-01-16T22:03:07.995Z,4.48
2019-01-16T22:04:08.009Z,4.42
2019-01-16T22:05:07.764Z,4.5
2019-01-16T22:06:08.061Z,4.47
2019-01-16T22:07:08.077Z,4.44
2019-01-16T22:08:07.850Z,4.4
2019-01-16T22:09:08.142Z,4.47
2019-01-16T22:10:07.889Z,4.35
2019-01-16T22:11:08.196Z,4.33
2019-01-16T22:12:08.204Z,4.36
2019-01-16T22:13:08.226Z,4.28
2019-01-16T22:14:07.996Z,4.28
2019-01-16T22:15:08.513Z,4.21
2019-01-16T22:16:08.547Z,4.24
2019-01-16T22:17:08.562Z,4.21
2019-01-16T22:18:09.074Z,4.28
2019-01-16T22:19:09.033Z,4.18
2019-01-16T22:20:09.605Z,4.11
2019-01-16T22:21:09.291Z,4.1
2019-01-16T22:22:09.059Z,4.15
2019-01-16T22:23:09.342Z,4.14
2019-01-16T22:24:09.364Z,4.14
2019-01-16T22:25:09.721Z,4.15
2019-01-16T22:26:10.309Z,4.14
2019-01-16T22:27:09.439Z,4.14
2019-01-16T22:28:09.962Z,4.1
2019-01-16T22:29:09.974Z,4.17
2019-01-16T22:30:10.023Z,4.11
2019-01-16T22:31:10.299Z,4.11
2019-01-16T22:32:10.510Z,4.15
2019-01-16T22:33:10.043Z,4.1
2019-01-16T22:34:10.563Z,4.03
2019-01-16T22:35:10.423Z,4.02
2019-01-16T22:36:10.669Z,4.14
2019-01-16T22:37:10.881Z,4.03
2019-01-16T22:38:11.120Z,4.03
2019-01-16T22:39:11.103Z,4.03
2019-01-16T22:40:11.638Z,3.97
2019-01-16T22:41:11.699Z,4
2019-01-16T22:42:11.725Z,3.99
2019-01-16T22:43:11.710Z,3.97
2019-01-16T22:44:11.472Z,3.97
2019-01-16T22:45:11.978Z,3.94
2019-01-16T22:46:11.721Z,3.97
2019-01-16T22:47:11.765Z,3.94
2019-01-16T22:48:11.764Z,3.97
2019-01-16T22:49:12.259Z,3.97
2019-01-16T22:50:12.270Z,3.99
2019-01-16T22:51:12.042Z,3.92
2019-01-16T22:52:12.534Z,3.97
2019-01-16T22:53:12.564Z,3.93
2019-01-16T22:54:12.577Z,3.99
2019-01-16T22:55:12.335Z,3.92
2019-01-16T22:56:12.557Z,3.94
2019-01-16T22:57:13.056Z,3.9
2019-01-16T22:58:13.943Z,3.92
2019-01-16T22:59:13.101Z,3.86
2019-01-16T23:01:13.103Z,3.94
2019-01-16T23:02:13.664Z,3.9
2019-01-16T23:03:13.603Z,3.9
2019-01-16T23:04:13.638Z,3.92
2019-01-16T23:05:13.650Z,3.94
2019-01-16T23:06:13.697Z,3.9
2019-01-16T23:07:13.692Z,3.97
2019-01-16T23:08:13.713Z,3.92
2019-01-16T23:09:13.712Z,3.9
2019-01-16T23:10:13.738Z,3.9
2019-01-16T23:11:13.780Z,3.89
2019-01-16T23:12:13.533Z,3.89
2019-01-16T23:13:13.965Z,3.94
2019-01-16T23:14:13.991Z,3.86
2019-01-16T23:15:14.418Z,3.93
2019-01-16T23:16:14.838Z,3.96
2019-01-16T23:17:15.296Z,3.92
2019-01-16T23:18:15.468Z,3.85
2019-01-16T23:19:15.500Z,3.85
2019-01-16T23:20:15.670Z,3.85
2019-01-16T23:21:15.546Z,3.85
2019-01-16T23:22:15.560Z,3.92
2019-01-16T23:23:16.020Z,3.89
2019-01-16T23:24:16.058Z,3.9
2019-01-16T23:25:16.473Z,3.85
2019-01-16T23:26:16.681Z,3.86
2019-01-16T23:27:16.698Z,3.94
2019-01-16T23:28:16.762Z,3.89
2019-01-16T23:29:16.748Z,3.92
2019-01-16T23:30:16.784Z,3.86
2019-01-16T23:31:16.872Z,3.82
2019-01-16T23:32:16.822Z,3.85
2019-01-16T23:33:16.856Z,3.92
2019-01-16T23:34:16.867Z,3.86
2019-01-16T23:35:17.101Z,3.89
2019-01-16T23:36:16.914Z,3.78
2019-01-16T23:37:16.680Z,3.85
2019-01-16T23:38:16.705Z,3.92
2019-01-16T23:39:17.187Z,3.92
2019-01-16T23:40:16.932Z,3.94
2019-01-16T23:41:17.641Z,3.82
2019-01-16T23:42:17.608Z,3.84
2019-01-16T23:43:18.055Z,3.81
2019-01-16T23:44:17.431Z,3.84
2019-01-16T23:45:17.944Z,3.78
2019-01-16T23:46:18.107Z,3.84
2019-01-16T23:47:18.594Z,3.79
2019-01-16T23:48:19.280Z,3.75
2019-01-16T23:49:18.804Z,3.92
2019-01-16T23:50:19.501Z,3.82
2019-01-16T23:51:19.496Z,3.84
2019-01-16T23:52:19.546Z,3.82
2019-01-16T23:53:19.574Z,3.82
2019-01-16T23:54:20.559Z,3.86
2019-01-16T23:55:19.744Z,3.84
2019-01-16T23:56:19.926Z,3.79
2019-01-16T23:57:20.371Z,3.81
2019-01-16T23:58:20.418Z,3.89
2019-01-16T23:59:20.419Z,3.75
